createdAt,value
2018-08-31T00:00:47.753Z,3.13
2018-08-31T00:04:54.809Z,3.10
2018-08-31T00:11:07.204Z,3.30
2018-08-31T00:15:01.516Z,3.90
2018-08-31T00:18:58.456Z,3.60
2018-08-31T00:22:54.752Z,5.13
2018-08-31T00:27:12.091Z,5.13
2018-08-31T00:31:28.947Z,5.20
2018-08-31T00:35:39.480Z,5.03
2018-08-31T00:42:03.644Z,4.47
2018-08-31T00:46:02.212Z,3.40
2018-08-31T00:49:57.248Z,3.13
2018-08-31T00:53:54.136Z,3.40
2018-08-31T00:57:49.659Z,3.57
2018-08-31T01:01:46.220Z,3.43
2018-08-31T01:05:43.764Z,3.63
2018-08-31T01:09:43.786Z,3.20
2018-08-31T01:13:42.809Z,2.87
2018-08-31T01:17:36.761Z,3.60
2018-08-31T01:21:30.863Z,3.60
2018-08-31T01:25:25.088Z,3.43
2018-08-31T01:29:19.252Z,3.33
2018-08-31T01:33:16.638Z,3.23
2018-08-31T01:37:16.356Z,3.23
2018-08-31T01:45:55.791Z,3.30
2018-08-31T01:54:23.338Z,3.80
2018-08-31T01:58:17.365Z,3.63
2018-08-31T02:02:18.326Z,3.67
2018-08-31T02:06:13.222Z,3.27
2018-08-31T02:10:10.670Z,3.30
2018-08-31T02:14:06.631Z,4.20
2018-08-31T02:18:00.581Z,3.37
2018-08-31T02:21:54.543Z,3.37
2018-08-31T02:25:48.899Z,3.80
2018-08-31T02:29:42.972Z,3.70
2018-08-31T02:33:37.271Z,3.73
2018-08-31T02:37:31.362Z,4.07
2018-08-31T02:41:25.418Z,3.90
2018-08-31T02:45:21.542Z,3.93
2018-08-31T02:49:15.687Z,4.97
2018-08-31T02:53:09.954Z,4.67
2018-08-31T02:57:03.928Z,4.67
2018-08-31T03:00:57.856Z,4.80
2018-08-31T03:04:51.831Z,4.63
2018-08-31T03:08:46.318Z,5.20
2018-08-31T03:12:40.355Z,4.80
2018-08-31T03:16:34.717Z,4.30
2018-08-31T03:20:28.847Z,3.73
2018-08-31T03:24:23.317Z,3.90
2018-08-31T03:28:17.383Z,3.50
2018-08-31T03:32:11.351Z,3.50
2018-08-31T03:36:05.298Z,3.73
2018-08-31T03:39:59.387Z,3.50
2018-08-31T03:43:53.318Z,3.10
2018-08-31T03:47:47.474Z,3.57
2018-08-31T03:51:41.614Z,3.83
2018-08-31T03:55:35.846Z,3.70
2018-08-31T03:59:35.952Z,3.93
2018-08-31T04:03:29.976Z,3.40
2018-08-31T04:07:24.039Z,3.17
2018-08-31T04:11:18.163Z,3.60
2018-08-31T04:15:12.189Z,3.37
2018-08-31T04:19:15.963Z,3.65
2018-08-31T04:23:10.124Z,4.20
2018-08-31T04:27:04.235Z,3.63
2018-08-31T04:30:58.183Z,3.97
2018-08-31T04:34:52.299Z,4.42
2018-08-31T04:38:46.674Z,3.93
2018-08-31T04:42:40.902Z,3.57
2018-08-31T04:46:34.865Z,4.07
2018-08-31T04:50:28.892Z,4.17
2018-08-31T04:54:22.823Z,3.80
2018-08-31T04:58:16.850Z,3.90
2018-08-31T05:02:10.933Z,4.25
2018-08-31T05:06:04.924Z,4.20
2018-08-31T05:09:59.170Z,3.73
2018-08-31T05:13:53.480Z,4.73
2018-08-31T05:17:47.531Z,3.80
2018-08-31T05:21:41.668Z,4.03
2018-08-31T05:25:35.689Z,4.97
2018-08-31T05:29:29.699Z,3.90
2018-08-31T05:33:23.849Z,4.60
2018-08-31T05:37:17.995Z,5.60
2018-08-31T05:41:12.000Z,5.67
2018-08-31T05:45:06.143Z,5.03
2018-08-31T05:49:00.553Z,3.70
2018-08-31T05:52:54.494Z,3.40
2018-08-31T05:56:48.484Z,3.50
2018-08-31T06:00:42.504Z,3.10
2018-08-31T06:04:36.473Z,3.30
2018-08-31T06:08:30.493Z,3.83
2018-08-31T06:12:24.644Z,3.47
2018-08-31T06:16:18.675Z,2.90
2018-08-31T06:20:12.712Z,3.10
2018-08-31T06:24:06.801Z,3.12
2018-08-31T06:28:01.793Z,2.80
2018-08-31T06:31:55.752Z,2.30
2018-08-31T06:35:50.000Z,2.50
2018-08-31T06:39:43.940Z,2.60
2018-08-31T06:43:38.323Z,2.60
2018-08-31T06:47:32.448Z,2.43
2018-08-31T06:51:26.459Z,2.20
2018-08-31T06:55:20.483Z,2.10
2018-08-31T06:59:14.587Z,2.90
2018-08-31T07:03:08.713Z,5.70
2018-08-31T07:07:03.496Z,2.75
2018-08-31T07:10:57.480Z,2.20
2018-08-31T07:14:52.103Z,2.20
2018-08-31T07:18:47.729Z,2.30
2018-08-31T07:22:41.769Z,2.27
2018-08-31T07:26:37.705Z,2.00
2018-08-31T07:30:43.529Z,2.40
2018-08-31T07:34:37.474Z,2.07
2018-08-31T07:38:31.665Z,2.27
2018-08-31T07:42:25.697Z,1.80
2018-08-31T07:46:19.833Z,2.02
2018-08-31T07:50:14.251Z,1.90
2018-08-31T07:54:08.348Z,2.00
2018-08-31T07:58:03.146Z,1.43
2018-08-31T08:01:57.116Z,1.30
2018-08-31T08:05:51.322Z,2.00
2018-08-31T08:09:45.374Z,1.77
2018-08-31T08:13:39.422Z,1.67
2018-08-31T08:17:33.546Z,1.60
2018-08-31T08:21:27.584Z,1.17
2018-08-31T08:25:21.661Z,1.50
2018-08-31T08:29:15.677Z,1.83
2018-08-31T08:33:09.710Z,2.20
2018-08-31T08:37:03.919Z,1.73
2018-08-31T08:40:58.066Z,1.80
2018-08-31T08:44:57.196Z,2.00
2018-08-31T08:48:51.381Z,2.10
2018-08-31T08:52:45.623Z,2.47
2018-08-31T08:56:41.427Z,2.30
2018-08-31T09:00:35.455Z,2.60
2018-08-31T09:04:30.379Z,2.27
2018-08-31T09:08:24.771Z,2.30
2018-08-31T09:12:22.957Z,2.60
2018-08-31T09:16:17.511Z,2.57
2018-08-31T09:20:11.594Z,2.50
2018-08-31T09:24:05.727Z,2.53
2018-08-31T09:27:59.835Z,2.73
2018-08-31T09:31:55.092Z,2.80
2018-08-31T09:35:49.137Z,3.50
2018-08-31T09:39:44.377Z,2.30
2018-08-31T09:43:39.718Z,2.05
2018-08-31T09:47:35.128Z,1.90
2018-08-31T09:51:29.090Z,1.40
2018-08-31T09:55:23.090Z,1.90
2018-08-31T09:59:27.027Z,1.83
2018-08-31T10:03:25.379Z,1.90
2018-08-31T10:07:19.579Z,2.53
2018-08-31T10:11:14.141Z,1.40
2018-08-31T10:15:08.336Z,1.40
2018-08-31T10:19:02.731Z,1.60
2018-08-31T10:22:56.774Z,1.50
2018-08-31T10:26:51.084Z,1.57
2018-08-31T10:30:45.132Z,1.30
2018-08-31T10:34:42.678Z,1.53
2018-08-31T10:38:37.032Z,1.40
2018-08-31T10:42:31.558Z,1.30
2018-08-31T10:46:25.943Z,1.00
2018-08-31T10:50:20.222Z,1.17
2018-08-31T10:54:15.395Z,1.90
2018-08-31T10:58:10.474Z,0.97
2018-08-31T11:02:04.413Z,1.73
2018-08-31T11:05:58.415Z,1.50
2018-08-31T11:09:54.499Z,1.73
2018-08-31T11:13:48.592Z,1.80
2018-08-31T11:17:42.593Z,1.90
2018-08-31T11:21:36.734Z,1.57
2018-08-31T11:25:32.715Z,1.83
2018-08-31T11:29:27.062Z,2.10
2018-08-31T11:33:22.043Z,2.10
2018-08-31T11:37:16.091Z,1.40
2018-08-31T11:41:10.329Z,1.50
2018-08-31T11:45:05.721Z,1.90
2018-08-31T11:48:59.836Z,1.33
2018-08-31T11:52:54.575Z,1.40
2018-08-31T11:56:48.832Z,1.40
2018-08-31T12:00:44.968Z,1.80
2018-08-31T12:04:38.982Z,1.92
2018-08-31T12:08:33.286Z,1.45
2018-08-31T12:12:27.855Z,1.63
2018-08-31T12:16:22.926Z,1.70
2018-08-31T12:20:18.788Z,1.70
2018-08-31T12:24:13.869Z,1.30
2018-08-31T12:28:08.487Z,1.40
2018-08-31T12:32:02.540Z,1.60
2018-08-31T12:35:56.888Z,1.37
2018-08-31T12:39:50.906Z,1.37
2018-08-31T12:43:45.036Z,1.30
2018-08-31T12:47:39.623Z,1.80
2018-08-31T12:51:35.018Z,1.30
2018-08-31T12:55:29.116Z,1.67
2018-08-31T12:59:23.132Z,1.30
2018-08-31T13:03:17.261Z,1.40
2018-08-31T13:07:11.359Z,1.30
2018-08-31T13:11:06.144Z,1.60
2018-08-31T13:15:00.168Z,1.30
2018-08-31T13:18:55.665Z,1.07
2018-08-31T13:22:49.960Z,1.00
2018-08-31T13:26:44.143Z,0.90
2018-08-31T13:30:38.072Z,1.40
2018-08-31T13:34:32.120Z,1.33
2018-08-31T13:38:26.246Z,1.10
2018-08-31T13:42:22.629Z,1.53
2018-08-31T13:46:19.970Z,1.47
2018-08-31T13:50:14.720Z,1.20
2018-08-31T13:54:09.172Z,1.77
2018-08-31T13:58:03.292Z,1.40
2018-08-31T14:01:57.327Z,1.30
2018-08-31T14:05:51.266Z,1.60
2018-08-31T14:09:45.508Z,1.70
2018-08-31T14:13:39.533Z,1.23
2018-08-31T14:17:33.598Z,1.30
2018-08-31T14:21:27.828Z,1.50
2018-08-31T14:25:21.976Z,0.90
2018-08-31T14:29:16.540Z,1.17
2018-08-31T14:33:11.247Z,1.50
2018-08-31T14:37:05.619Z,1.10
2018-08-31T14:40:59.573Z,1.47
2018-08-31T14:44:53.598Z,1.10
2018-08-31T14:48:47.633Z,1.40
2018-08-31T14:52:41.689Z,1.50
2018-08-31T14:56:35.799Z,1.33
2018-08-31T15:00:29.911Z,1.00
2018-08-31T15:04:24.067Z,1.10
2018-08-31T15:08:18.277Z,1.30
2018-08-31T15:12:13.152Z,2.83
2018-08-31T15:16:07.592Z,1.70
2018-08-31T15:20:01.596Z,1.30
2018-08-31T15:23:55.675Z,1.40
2018-08-31T15:27:49.650Z,1.40
2018-08-31T15:31:43.653Z,1.40
2018-08-31T15:35:37.681Z,1.43
2018-08-31T15:39:32.634Z,1.27
2018-08-31T15:43:26.807Z,1.20
2018-08-31T15:47:21.012Z,2.00
2018-08-31T15:51:15.837Z,1.70
2018-08-31T15:55:09.905Z,1.13
2018-08-31T15:59:05.084Z,1.00
2018-08-31T16:02:59.143Z,1.30
2018-08-31T16:06:53.424Z,2.07
2018-08-31T16:10:47.839Z,1.50
2018-08-31T16:14:41.911Z,1.30
2018-08-31T16:18:36.207Z,1.27
2018-08-31T16:22:30.499Z,1.50
2018-08-31T16:26:24.601Z,1.03
2018-08-31T16:30:19.687Z,1.37
2018-08-31T16:34:13.713Z,1.30
2018-08-31T16:38:07.853Z,1.70
2018-08-31T16:42:02.045Z,1.40
2018-08-31T16:45:56.220Z,1.50
2018-08-31T16:49:50.567Z,1.80
2018-08-31T16:53:44.541Z,1.82
2018-08-31T16:57:38.582Z,1.40
2018-08-31T17:01:32.560Z,1.30
2018-08-31T17:05:26.616Z,1.40
2018-08-31T17:09:20.604Z,1.57
2018-08-31T17:13:14.528Z,0.97
2018-08-31T17:17:08.524Z,1.40
2018-08-31T17:21:02.501Z,1.50
2018-08-31T17:24:56.690Z,1.87
2018-08-31T17:28:55.981Z,1.62
2018-08-31T17:32:55.488Z,1.45
2018-08-31T17:36:54.972Z,1.60
2018-08-31T17:40:48.991Z,1.83
2018-08-31T17:44:43.077Z,1.50
2018-08-31T17:48:37.065Z,1.87
2018-08-31T17:52:31.628Z,1.90
2018-08-31T17:56:25.790Z,1.80
2018-08-31T18:00:19.773Z,1.70
2018-08-31T18:04:13.996Z,1.50
2018-08-31T18:08:09.029Z,2.10
2018-08-31T18:12:03.035Z,1.73
2018-08-31T18:15:57.157Z,1.60
2018-08-31T18:19:51.004Z,1.50
2018-08-31T18:23:45.088Z,1.60
2018-08-31T18:27:39.143Z,1.00
2018-08-31T18:31:33.119Z,1.10
2018-08-31T18:35:27.124Z,1.53
2018-08-31T18:39:21.135Z,1.20
2018-08-31T18:43:16.502Z,1.40
2018-08-31T18:47:10.813Z,1.43
2018-08-31T18:51:04.812Z,2.00
2018-08-31T18:54:58.829Z,2.27
2018-08-31T18:58:52.803Z,2.30
2018-08-31T19:02:47.105Z,2.13
2018-08-31T19:06:44.014Z,1.52
2018-08-31T19:10:39.004Z,1.57
2018-08-31T19:14:33.071Z,1.20
2018-08-31T19:18:27.668Z,1.57
2018-08-31T19:22:22.187Z,1.57
2018-08-31T19:26:16.156Z,1.77
2018-08-31T19:30:10.409Z,1.63
2018-08-31T19:34:04.372Z,1.70
2018-08-31T19:37:58.558Z,1.60
2018-08-31T19:41:52.513Z,1.53
2018-08-31T19:45:46.511Z,1.90
2018-08-31T19:49:40.844Z,1.45
2018-08-31T19:53:34.903Z,1.60
2018-08-31T19:57:28.972Z,1.00
2018-08-31T20:01:23.196Z,1.90
2018-08-31T20:05:17.124Z,1.27
2018-08-31T20:09:11.179Z,1.50
2018-08-31T20:13:05.202Z,1.40
2018-08-31T20:16:59.183Z,1.60
2018-08-31T20:20:53.239Z,1.53
2018-08-31T20:24:47.277Z,1.83
2018-08-31T20:28:42.350Z,1.60
2018-08-31T20:32:36.345Z,2.23
2018-08-31T20:36:30.827Z,2.03
2018-08-31T20:40:24.847Z,1.90
2018-08-31T20:44:18.845Z,1.90
2018-08-31T20:48:12.822Z,2.23
2018-08-31T20:52:06.769Z,2.73
2018-08-31T20:56:00.896Z,2.40
2018-08-31T20:59:55.504Z,2.90
2018-08-31T21:03:49.708Z,3.30
2018-08-31T21:07:44.317Z,4.03
2018-08-31T21:11:38.393Z,5.10
2018-08-31T21:15:32.428Z,2.70
2018-08-31T21:19:26.424Z,2.33
2018-08-31T21:23:20.528Z,2.47
2018-08-31T21:27:14.455Z,2.73
2018-08-31T21:31:08.577Z,1.97
2018-08-31T21:35:02.639Z,2.50
2018-08-31T21:38:56.735Z,2.58
2018-08-31T21:42:51.924Z,2.60
2018-08-31T21:46:46.879Z,3.00
2018-08-31T21:50:41.276Z,2.70
2018-08-31T21:54:35.355Z,2.53
2018-08-31T21:58:29.540Z,2.23
2018-08-31T22:02:24.086Z,2.40
2018-08-31T22:06:18.047Z,2.57
2018-08-31T22:10:12.101Z,2.37
2018-08-31T22:14:06.789Z,2.10
2018-08-31T22:18:00.832Z,1.82
2018-08-31T22:21:54.815Z,2.70
2018-08-31T22:25:49.143Z,1.65
2018-08-31T22:29:43.195Z,1.90
2018-08-31T22:33:37.425Z,1.60
2018-08-31T22:37:31.465Z,2.00
2018-08-31T22:41:25.742Z,2.90
2018-08-31T22:45:19.715Z,2.43
2018-08-31T22:49:13.704Z,2.10
2018-08-31T22:53:07.742Z,2.20
2018-08-31T22:57:01.719Z,2.63
2018-08-31T23:00:55.707Z,2.13
2018-08-31T23:04:49.671Z,2.17
2018-08-31T23:08:43.644Z,3.70
2018-08-31T23:12:37.659Z,2.17
2018-08-31T23:16:31.708Z,2.03
2018-08-31T23:20:25.667Z,2.30
2018-08-31T23:24:19.647Z,2.07
2018-08-31T23:28:13.627Z,2.10
2018-08-31T23:32:07.526Z,2.53
2018-08-31T23:36:01.626Z,1.83
2018-08-31T23:39:55.615Z,1.72
2018-08-31T23:43:49.529Z,2.13
2018-08-31T23:47:43.467Z,2.10
2018-08-31T23:51:37.443Z,2.30
2018-08-31T23:55:31.400Z,2.20
2018-08-31T23:59:25.340Z,2.30
